• Join FlightAware (Why Join?)
  • Login
  • US Flag 
06:58PM EDT


 

Airport Tracker/Info


-or-


 

Live Flight TrackerFlight Track Log ✈ N830QS ✈ 19-Aug-2013 ✈ KCCR - KSAN

Flight Track Log - Related Links

Times and Time Zones

All times are in EDT time to prevent confusion due to time zone crossing. See the N830QS flight status page for this flight to view local times or setup timezone preferences in your user account.

Time Position Orientation Groundspeed Altitude Reporting Facility
EDT Latitude Longitude Course Direction KTS MPH feet Rate Location/Type
12:19PM 37.9597 -122.0678 77° East 173 199 1,500  Level Oakland Center
12:21PM 37.9678 -122.0236 77° East 182 209 3,800 2,220 Climbing Oakland Center
12:22PM 38.0247 -122.0361 350° North 209 241 6,200 2,400 Climbing Oakland Center
12:23PM 38.0469 -121.9669 68° East 223 257 8,800 1,920 Climbing Oakland Center
12:24PM 38.0506 -121.8714 87° East 267 307 10,200 1,320 Climbing Oakland Center
12:25PM 38.0531 -121.7619 88° East 305 351 11,600 1,080 Climbing Oakland Center
12:26PM 38.0375 -121.6289 98° East 324 373 12,500 840 Climbing Oakland Center
12:27PM 37.9564 -121.5808 155° Southeast 339 390 13,400 1,260 Climbing Oakland Center
12:28PM 37.8575 -121.5806 180° South 352 405 15,200 1,860 Climbing Oakland Center
12:29PM 37.7628 -121.5797 180° South 342 394 17,300 1,800 Climbing Oakland Center
12:30PM 37.6678 -121.5772 179° South 341 392 19,000 1,680 Climbing Oakland Center
12:31PM 37.5758 -121.5428 163° South 352 405 20,800 1,740 Climbing Oakland Center
12:32PM 37.4956 -121.4700 144° Southeast 355 409 22,600 1,740 Climbing Oakland Center
12:33PM 37.4153 -121.3967 144° Southeast 356 410 24,400 1,740 Climbing Oakland Center
12:34PM 37.3239 -121.3150 145° Southeast 358 412 26,300 1,620 Climbing Oakland Center
12:35PM 37.2411 -121.2419 145° Southeast 361 415 27,800 1,380 Climbing Oakland Center
12:36PM 37.1572 -121.1669 145° Southeast 368 423 29,200 1,860 Climbing Oakland Center
12:37PM 37.0761 -121.0950 145° Southeast 361 415 31,700 1,800 Climbing Oakland Center
12:38PM 36.9847 -121.0139 145° Southeast 340 391 33,000 600 Climbing Oakland Center
12:39PM 36.9025 -120.9397 144° Southeast 357 411 33,000  Level Oakland Center
12:40PM 36.8147 -120.8675 147° Southeast 356 410 33,000  Level Oakland Center
12:41PM 36.7142 -120.8481 171° South 357 411 33,000  Level Oakland Center
12:42PM 36.6175 -120.8189 166° South 356 410 33,000  Level Oakland Center
12:43PM 36.5217 -120.7919 167° South 353 406 33,000  Level Oakland Center
12:44PM 36.4333 -120.7467 158° South 347 399 33,000  Level Oakland Center
12:45PM 36.3581 -120.6694 140° Southeast 348 400 33,000  Level Oakland Center
12:46PM 36.2819 -120.5953 142° Southeast 348 400 33,000  Level Oakland Center
12:47PM 36.2044 -120.5231 143° Southeast 348 400 33,000  Level Oakland Center
12:48PM 36.1281 -120.4497 142° Southeast 347 399 33,000  Level Oakland Center
12:49PM 36.0347 -120.3628 143° Southeast 349 402 33,000  Level Oakland Center
12:50PM 35.9458 -120.3144 156° South 349 402 33,000  Level Oakland Center
12:51PM 35.8553 -120.2681 157° South 350 403 33,000  Level Oakland Center
12:52PM 35.7658 -120.2189 156° South 351 404 33,000  Level Oakland Center
12:53PM 35.6767 -120.1722 157° South 347 399 33,000  Level Oakland Center
12:54PM 35.5875 -120.1247 157° South 347 399 33,000  Level Los Angeles Center
12:55PM 35.4978 -120.0761 156° South 347 399 33,000  Level Los Angeles Center
12:56PM 35.4078 -120.0292 157° South 347 399 33,000  Level Los Angeles Center
12:57PM 35.3189 -119.9817 156° South 347 399 33,000  Level Los Angeles Center
12:59PM 35.2283 -119.9350 157° South 349 402 33,000  Level Los Angeles Center
01:00PM 35.1417 -119.8406 138° Southeast 351 404 33,000  Level Los Angeles Center
01:01PM 35.0717 -119.7558 135° Southeast 353 406 33,000  Level Los Angeles Center
01:02PM 35.0011 -119.6731 136° Southeast 352 405 33,000  Level Los Angeles Center
01:03PM 34.9306 -119.5892 136° Southeast 354 407 33,000  Level Los Angeles Center
01:04PM 34.8592 -119.5067 137° Southeast 354 407 33,000  Level Los Angeles Center
01:05PM 34.7881 -119.4236 136° Southeast 355 409 33,000  Level Los Angeles Center
01:06PM 34.7028 -119.3222 136° Southeast 356 410 33,000  Level Los Angeles Center
01:07PM 34.6322 -119.2389 136° Southeast 355 409 33,000  Level Los Angeles Center
01:08PM 34.5567 -119.1517 136° Southeast 360 414 33,000  Level Los Angeles Center
01:09PM 34.4839 -119.0675 136° Southeast 362 417 33,000  Level Los Angeles Center
01:10PM 34.4103 -118.9828 136° Southeast 364 419 33,000  Level Los Angeles Center
01:11PM 34.3369 -118.8989 137° Southeast 363 418 33,000  Level Los Angeles Center
01:12PM 34.2633 -118.8139 136° Southeast 366 421 33,000  Level Los Angeles Center
01:13PM 34.1758 -118.7131 136° Southeast 364 419 33,000  Level Los Angeles Center
01:14PM 34.1022 -118.6278 136° Southeast 365 420 33,000  Level Los Angeles Center
01:15PM 34.0281 -118.5419 136° Southeast 368 423 33,000  Level Los Angeles Center
01:16PM 33.9539 -118.4567 136° Southeast 368 423 33,000  Level Los Angeles Center
01:17PM 33.8822 -118.3647 133° Southeast 375 432 33,000 -240 Level Los Angeles Center
01:18PM 33.8064 -118.2753 136° Southeast 377 434 32,500 -780 Descending Los Angeles Center
01:19PM 33.7319 -118.1719 131° Southeast 394 453 31,400 -1,020 Descending Los Angeles Center
01:20PM 33.6583 -118.0806 134° Southeast 385 443 30,400 -1,080 Descending Los Angeles Center
01:21PM 33.5711 -117.9708 134° Southeast 378 435 29,200 -1,800 Descending Los Angeles Center
01:22PM 33.4997 -117.8797 133° Southeast 374 430 26,800 -2,460 Descending Los Angeles Center
01:23PM 33.4500 -117.8167 133° Southeast 365 420 25,200 -2,400 Descending Southern California TRACON
01:24PM 33.3833 -117.7333 134° Southeast 370 426 23,200 -2,160 Descending Southern California TRACON
01:24PM 33.3558 -117.7014 136° Southeast 371 427 22,100 -2,280 Descending Los Angeles Center
01:25PM 33.2875 -117.6142 133° Southeast 361 415 19,600 -2,760 Descending Los Angeles Center
01:26PM 33.2500 -117.5667 133° Southeast 359 413 17,900 -2,760 Descending Southern California TRACON
01:27PM 33.1667 -117.5000 146° Southeast 349 402 15,500 -2,220 Descending Southern California TRACON
01:28PM 33.1164 -117.4733 156° South 334 384 14,500 -1,980 Descending Los Angeles Center
01:29PM 33.0403 -117.4172 148° Southeast 325 374 12,400 -1,920 Descending Los Angeles Center
01:30PM 32.9758 -117.3561 141° Southeast 305 351 10,600 -1,800 Descending Los Angeles Center
01:31PM 32.9239 -117.2872 132° Southeast 286 329 8,800 -1,680 Descending Los Angeles Center
01:32PM 32.8725 -117.2239 134° Southeast 270 311 7,100 -960 Descending Los Angeles Center
01:33PM 32.8253 -117.1636 133° Southeast 256 295 6,900 -360 Descending Los Angeles Center
01:34PM 32.7894 -117.0922 121° Southeast 238 274 6,400 -780 Descending Los Angeles Center
01:35PM 32.7608 -117.0169 114° Southeast 249 287 5,400 -780 Descending Los Angeles Center
01:36PM 32.7344 -116.9242 109° East 245 282 4,900 -720 Descending Los Angeles Center
01:37PM 32.6853 -116.9147 171° South 237 273 4,000 -780 Descending Los Angeles Center
01:38PM 32.6839 -116.9889 269° West 231 266 3,400 -780 Descending Los Angeles Center
01:39PM 32.6994 -117.0517 286° West 205 236 2,400 -960 Descending Los Angeles Center
01:40PM 32.7125 -117.1047 286° West 174 200 1,400 -960 Descending Los Angeles Center
01:41PM 32.7242 -117.1550 285° West 160 184 500 6,540 Descending Los Angeles Center
01:42PM 32.7344 -117.2031 284° West 136 157 15,000 13,980 Climbing Los Angeles Center